sensor_id;sensor_type;location;lat;lon;timestamp;pressure;altitude;pressure_sealevel;temperature;humidity
74958;BME280;63741;42.624;26.276;2022-10-31T00:01:26;99957.25;;;14.49;53.45
74958;BME280;63741;42.624;26.276;2022-10-31T00:03:53;99937.72;;;14.29;53.92
74958;BME280;63741;42.624;26.276;2022-10-31T00:06:21;99939.81;;;14.26;54.87
74958;BME280;63741;42.624;26.276;2022-10-31T00:08:59;99931.56;;;13.98;56.03
74958;BME280;63741;42.624;26.276;2022-10-31T00:11:26;99934.00;;;14.11;54.91
74958;BME280;63741;42.624;26.276;2022-10-31T00:13:53;99929.81;;;14.18;55.20
74958;BME280;63741;42.624;26.276;2022-10-31T00:16:22;99926.09;;;14.30;54.72
74958;BME280;63741;42.624;26.276;2022-10-31T00:18:55;99933.03;;;14.12;54.68
74958;BME280;63741;42.624;26.276;2022-10-31T00:21:23;99927.34;;;13.96;55.62
74958;BME280;63741;42.624;26.276;2022-10-31T00:23:50;99921.97;;;14.07;54.89
74958;BME280;63741;42.624;26.276;2022-10-31T00:26:18;99939.47;;;14.19;54.32
74958;BME280;63741;42.624;26.276;2022-10-31T00:28:45;99931.25;;;14.22;55.18
74958;BME280;63741;42.624;26.276;2022-10-31T00:31:12;99924.69;;;14.26;54.72
74958;BME280;63741;42.624;26.276;2022-10-31T00:33:40;99922.75;;;13.98;55.97
74958;BME280;63741;42.624;26.276;2022-10-31T00:36:11;99929.47;;;14.02;55.84
74958;BME280;63741;42.624;26.276;2022-10-31T00:38:40;99933.13;;;14.01;55.29
74958;BME280;63741;42.624;26.276;2022-10-31T00:41:07;99935.25;;;14.07;55.23
74958;BME280;63741;42.624;26.276;2022-10-31T00:43:34;99946.72;;;14.07;55.70
74958;BME280;63741;42.624;26.276;2022-10-31T00:46:01;99930.16;;;13.94;55.43
74958;BME280;63741;42.624;26.276;2022-10-31T00:48:28;99929.31;;;13.94;55.45
74958;BME280;63741;42.624;26.276;2022-10-31T00:50:56;99928.25;;;13.75;56.16
74958;BME280;63741;42.624;26.276;2022-10-31T00:53:23;99938.09;;;13.84;55.57
74958;BME280;63741;42.624;26.276;2022-10-31T00:55:51;99936.78;;;13.79;55.67
74958;BME280;63741;42.624;26.276;2022-10-31T00:58:18;99943.41;;;13.84;56.34
74958;BME280;63741;42.624;26.276;2022-10-31T01:00:48;99941.63;;;13.95;55.31
74958;BME280;63741;42.624;26.276;2022-10-31T01:03:27;99943.06;;;13.99;55.18
74958;BME280;63741;42.624;26.276;2022-10-31T01:06:08;99941.09;;;14.01;55.55
74958;BME280;63741;42.624;26.276;2022-10-31T01:08:37;99942.53;;;13.84;55.40
74958;BME280;63741;42.624;26.276;2022-10-31T01:11:24;99946.69;;;13.67;56.26
74958;BME280;63741;42.624;26.276;2022-10-31T01:13:52;99944.09;;;13.86;55.05
74958;BME280;63741;42.624;26.276;2022-10-31T01:16:22;99936.97;;;13.87;54.84
74958;BME280;63741;42.624;26.276;2022-10-31T01:18:50;99941.88;;;13.91;54.95
74958;BME280;63741;42.624;26.276;2022-10-31T01:21:20;99934.84;;;13.81;55.12
74958;BME280;63741;42.624;26.276;2022-10-31T01:23:49;99935.78;;;14.01;55.29
74958;BME280;63741;42.624;26.276;2022-10-31T01:26:19;99934.97;;;14.10;54.80
74958;BME280;63741;42.624;26.276;2022-10-31T01:28:57;99935.47;;;13.94;54.45
74958;BME280;63741;42.624;26.276;2022-10-31T01:31:26;99945.50;;;13.81;55.37
74958;BME280;63741;42.624;26.276;2022-10-31T01:33:54;99933.88;;;13.61;56.60
74958;BME280;63741;42.624;26.276;2022-10-31T01:36:23;99947.19;;;13.61;56.54
74958;BME280;63741;42.624;26.276;2022-10-31T01:38:52;99948.16;;;13.60;57.14
74958;BME280;63741;42.624;26.276;2022-10-31T01:41:22;99940.00;;;13.52;57.22
74958;BME280;63741;42.624;26.276;2022-10-31T01:43:55;99933.88;;;13.61;57.87
74958;BME280;63741;42.624;26.276;2022-10-31T01:49:00;99932.88;;;13.83;57.26
74958;BME280;63741;42.624;26.276;2022-10-31T01:51:34;99939.63;;;13.87;57.31
74958;BME280;63741;42.624;26.276;2022-10-31T01:54:08;99934.31;;;13.87;56.68
74958;BME280;63741;42.624;26.276;2022-10-31T01:56:39;99936.31;;;13.95;56.64
74958;BME280;63741;42.624;26.276;2022-10-31T01:59:11;99943.16;;;13.97;56.88
74958;BME280;63741;42.624;26.276;2022-10-31T02:01:40;99937.63;;;13.79;57.04
74958;BME280;63741;42.624;26.276;2022-10-31T02:04:07;99935.78;;;14.01;56.01
74958;BME280;63741;42.624;26.276;2022-10-31T02:06:43;99944.94;;;13.87;57.46
74958;BME280;63741;42.624;26.276;2022-10-31T02:09:12;99938.41;;;13.70;57.31
74958;BME280;63741;42.624;26.276;2022-10-31T02:11:41;99947.81;;;13.74;57.56
74958;BME280;63741;42.624;26.276;2022-10-31T02:14:10;99937.81;;;13.87;57.49
74958;BME280;63741;42.624;26.276;2022-10-31T02:16:37;99940.03;;;13.82;57.00
74958;BME280;63741;42.624;26.276;2022-10-31T02:19:07;99937.94;;;13.86;56.89
74958;BME280;63741;42.624;26.276;2022-10-31T02:21:57;99946.59;;;13.78;57.36
74958;BME280;63741;42.624;26.276;2022-10-31T02:30:03;99954.50;;;13.89;56.52
74958;BME280;63741;42.624;26.276;2022-10-31T02:35:49;99945.19;;;13.84;56.63
74958;BME280;63741;42.624;26.276;2022-10-31T02:38:46;99943.28;;;13.65;57.54
74958;BME280;63741;42.624;26.276;2022-10-31T02:41:35;99945.19;;;13.84;56.66
74958;BME280;63741;42.624;26.276;2022-10-31T02:47:12;99944.53;;;13.61;57.74
74958;BME280;63741;42.624;26.276;2022-10-31T02:49:48;99956.53;;;13.76;57.86
74958;BME280;63741;42.624;26.276;2022-10-31T02:52:43;99963.25;;;13.80;57.30
74958;BME280;63741;42.624;26.276;2022-10-31T02:55:11;99961.06;;;13.64;57.11
74958;BME280;63741;42.624;26.276;2022-10-31T02:57:39;99960.81;;;13.68;56.83
74958;BME280;63741;42.624;26.276;2022-10-31T03:00:08;99963.13;;;13.82;56.80
74958;BME280;63741;42.624;26.276;2022-10-31T03:11:41;99978.50;;;13.78;57.36
74958;BME280;63741;42.624;26.276;2022-10-31T03:14:21;99979.16;;;13.50;58.35
74958;BME280;63741;42.624;26.276;2022-10-31T03:17:00;99987.50;;;13.66;57.83
74958;BME280;63741;42.624;26.276;2022-10-31T03:19:33;99989.50;;;13.74;57.78
74958;BME280;63741;42.624;26.276;2022-10-31T03:22:05;99974.84;;;13.79;57.16
74958;BME280;63741;42.624;26.276;2022-10-31T03:24:38;99979.66;;;13.85;57.03
74958;BME280;63741;42.624;26.276;2022-10-31T03:27:08;99991.19;;;13.96;57.06
74958;BME280;63741;42.624;26.276;2022-10-31T03:29:37;99989.47;;;13.85;57.93
74958;BME280;63741;42.624;26.276;2022-10-31T03:32:15;99982.97;;;13.78;57.93
74958;BME280;63741;42.624;26.276;2022-10-31T03:34:46;99992.56;;;13.69;57.80
74958;BME280;63741;42.624;26.276;2022-10-31T03:37:17;99989.41;;;13.75;57.57
74958;BME280;63741;42.624;26.276;2022-10-31T03:39:46;99986.00;;;13.73;57.40
74958;BME280;63741;42.624;26.276;2022-10-31T03:42:24;99979.31;;;13.79;57.40
74958;BME280;63741;42.624;26.276;2022-10-31T03:44:59;99981.88;;;13.80;56.92
74958;BME280;63741;42.624;26.276;2022-10-31T03:47:29;99978.69;;;13.86;56.39
74958;BME280;63741;42.624;26.276;2022-10-31T03:49:56;99970.44;;;13.89;55.98
74958;BME280;63741;42.624;26.276;2022-10-31T03:52:47;99979.78;;;13.84;56.80
74958;BME280;63741;42.624;26.276;2022-10-31T04:00:19;99971.28;;;13.90;55.74
74958;BME280;63741;42.624;26.276;2022-10-31T04:02:53;99967.34;;;13.84;55.43
74958;BME280;63741;42.624;26.276;2022-10-31T04:05:26;99976.50;;;14.01;55.33
74958;BME280;63741;42.624;26.276;2022-10-31T04:08:00;99983.94;;;13.98;56.01
74958;BME280;63741;42.624;26.276;2022-10-31T04:10:31;99991.44;;;13.93;55.60
74958;BME280;63741;42.624;26.276;2022-10-31T04:13:12;99988.53;;;13.96;56.01
74958;BME280;63741;42.624;26.276;2022-10-31T04:15:48;99981.84;;;14.41;56.04
74958;BME280;63741;42.624;26.276;2022-10-31T04:18:17;99992.25;;;15.04;54.48
74958;BME280;63741;42.624;26.276;2022-10-31T04:20:44;99996.06;;;15.40;52.39
74958;BME280;63741;42.624;26.276;2022-10-31T04:23:22;100010.22;;;15.70;52.57
74958;BME280;63741;42.624;26.276;2022-10-31T04:25:51;100003.03;;;15.80;51.71
74958;BME280;63741;42.624;26.276;2022-10-31T04:28:18;100008.25;;;15.82;51.85
74958;BME280;63741;42.624;26.276;2022-10-31T04:30:50;100010.94;;;15.82;52.29
74958;BME280;63741;42.624;26.276;2022-10-31T04:33:17;100019.06;;;15.80;52.12
74958;BME280;63741;42.624;26.276;2022-10-31T04:35:46;100019.06;;;15.80;51.38
74958;BME280;63741;42.624;26.276;2022-10-31T04:38:13;100024.81;;;15.85;51.33
74958;BME280;63741;42.624;26.276;2022-10-31T04:40:42;100030.44;;;15.82;52.13
74958;BME280;63741;42.624;26.276;2022-10-31T04:43:29;100033.09;;;15.82;51.98
74958;BME280;63741;42.624;26.276;2022-10-31T04:45:58;100032.53;;;15.79;51.59
74958;BME280;63741;42.624;26.276;2022-10-31T04:48:25;100036.34;;;15.76;52.13
74958;BME280;63741;42.624;26.276;2022-10-31T04:50:52;100050.34;;;15.88;51.31
74958;BME280;63741;42.624;26.276;2022-10-31T04:53:19;100048.81;;;15.95;51.22
74958;BME280;63741;42.624;26.276;2022-10-31T04:56:06;100049.94;;;15.92;51.63
74958;BME280;63741;42.624;26.276;2022-10-31T04:58:39;100054.59;;;15.81;52.43
74958;BME280;63741;42.624;26.276;2022-10-31T05:01:07;100055.72;;;15.78;52.06
74958;BME280;63741;42.624;26.276;2022-10-31T05:03:35;100056.28;;;15.82;51.83
74958;BME280;63741;42.624;26.276;2022-10-31T05:06:01;100057.69;;;15.86;52.06
74958;BME280;63741;42.624;26.276;2022-10-31T05:08:28;100055.81;;;15.96;51.93
74958;BME280;63741;42.624;26.276;2022-10-31T05:11:02;100062.56;;;16.00;51.36
74958;BME280;63741;42.624;26.276;2022-10-31T05:13:31;100070.81;;;16.07;51.37
74958;BME280;63741;42.624;26.276;2022-10-31T05:16:18;100078.69;;;16.18;51.49
74958;BME280;63741;42.624;26.276;2022-10-31T05:19:05;100076.41;;;16.23;50.74
74958;BME280;63741;42.624;26.276;2022-10-31T05:22:04;100084.41;;;16.23;50.85
74958;BME280;63741;42.624;26.276;2022-10-31T05:24:32;100088.75;;;16.24;50.56
74958;BME280;63741;42.624;26.276;2022-10-31T05:26:59;100083.59;;;16.23;51.08
74958;BME280;63741;42.624;26.276;2022-10-31T05:29:26;100085.41;;;16.22;50.73
74958;BME280;63741;42.624;26.276;2022-10-31T05:31:53;100083.84;;;16.20;52.00
74958;BME280;63741;42.624;26.276;2022-10-31T05:34:40;100078.41;;;16.21;51.56
74958;BME280;63741;42.624;26.276;2022-10-31T05:37:30;100087.81;;;16.25;51.74
74958;BME280;63741;42.624;26.276;2022-10-31T05:39:59;100094.38;;;16.31;51.61
74958;BME280;63741;42.624;26.276;2022-10-31T05:42:34;100100.25;;;16.44;51.14
74958;BME280;63741;42.624;26.276;2022-10-31T05:45:01;100099.81;;;16.49;50.70
74958;BME280;63741;42.624;26.276;2022-10-31T05:47:50;100104.41;;;16.56;50.94
74958;BME280;63741;42.624;26.276;2022-10-31T05:50:36;100108.59;;;17.06;49.37
74958;BME280;63741;42.624;26.276;2022-10-31T05:53:09;100117.13;;;17.82;47.29
74958;BME280;63741;42.624;26.276;2022-10-31T05:55:37;100117.56;;;18.39;45.73
74958;BME280;63741;42.624;26.276;2022-10-31T05:58:10;100122.59;;;18.42;45.59
74958;BME280;63741;42.624;26.276;2022-10-31T06:00:41;100122.28;;;18.02;46.63
74958;BME280;63741;42.624;26.276;2022-10-31T06:03:09;100132.13;;;17.65;47.75
74958;BME280;63741;42.624;26.276;2022-10-31T06:05:47;100133.78;;;17.49;48.61
74958;BME280;63741;42.624;26.276;2022-10-31T06:08:23;100125.84;;;17.39;49.04
74958;BME280;63741;42.624;26.276;2022-10-31T06:10:50;100140.88;;;17.40;49.54
74958;BME280;63741;42.624;26.276;2022-10-31T06:13:24;100145.06;;;17.70;48.25
74958;BME280;63741;42.624;26.276;2022-10-31T06:16:00;100143.13;;;18.34;46.60
74958;BME280;63741;42.624;26.276;2022-10-31T06:18:33;100149.78;;;19.08;45.30
74958;BME280;63741;42.624;26.276;2022-10-31T06:21:00;100154.66;;;19.63;43.82
74958;BME280;63741;42.624;26.276;2022-10-31T06:23:27;100146.97;;;20.09;42.33
74958;BME280;63741;42.624;26.276;2022-10-31T06:26:14;100157.41;;;20.36;41.44
74958;BME280;63741;42.624;26.276;2022-10-31T06:28:41;100162.13;;;20.10;42.06
74958;BME280;63741;42.624;26.276;2022-10-31T06:31:16;100162.06;;;19.61;43.45
74958;BME280;63741;42.624;26.276;2022-10-31T06:33:43;100162.28;;;19.41;43.77
74958;BME280;63741;42.624;26.276;2022-10-31T06:36:10;100161.94;;;19.36;43.83
74958;BME280;63741;42.624;26.276;2022-10-31T06:38:37;100162.28;;;19.33;43.89
74958;BME280;63741;42.624;26.276;2022-10-31T06:41:06;100162.22;;;19.17;44.44
74958;BME280;63741;42.624;26.276;2022-10-31T06:43:47;100162.16;;;18.75;45.00
74958;BME280;63741;42.624;26.276;2022-10-31T06:46:36;100167.22;;;18.60;45.77
74958;BME280;63741;42.624;26.276;2022-10-31T06:49:23;100156.81;;;18.57;45.51
74958;BME280;63741;42.624;26.276;2022-10-31T06:51:56;100158.88;;;18.81;45.29
74958;BME280;63741;42.624;26.276;2022-10-31T06:54:22;100171.81;;;19.78;43.47
74958;BME280;63741;42.624;26.276;2022-10-31T06:56:49;100162.78;;;20.53;42.31
74958;BME280;63741;42.624;26.276;2022-10-31T06:59:16;100156.44;;;21.01;40.63
74958;BME280;63741;42.624;26.276;2022-10-31T07:02:09;100156.66;;;21.31;39.40
74958;BME280;63741;42.624;26.276;2022-10-31T07:04:37;100152.69;;;20.47;40.54
74958;BME280;63741;42.624;26.276;2022-10-31T07:07:04;100156.56;;;19.95;42.70
74958;BME280;63741;42.624;26.276;2022-10-31T07:09:33;100150.56;;;19.42;43.02
74958;BME280;63741;42.624;26.276;2022-10-31T07:12:02;100154.69;;;19.21;44.14
74958;BME280;63741;42.624;26.276;2022-10-31T07:14:32;100155.97;;;19.08;44.73
74958;BME280;63741;42.624;26.276;2022-10-31T07:17:00;100151.75;;;18.98;44.87
74958;BME280;63741;42.624;26.276;2022-10-31T07:19:37;100156.91;;;18.91;45.13
74958;BME280;63741;42.624;26.276;2022-10-31T07:22:04;100151.81;;;18.80;45.69
74958;BME280;63741;42.624;26.276;2022-10-31T07:24:33;100153.28;;;18.74;45.98
74958;BME280;63741;42.624;26.276;2022-10-31T07:27:42;100154.81;;;18.77;45.78
74958;BME280;63741;42.624;26.276;2022-10-31T07:30:13;100157.31;;;18.78;45.86
74958;BME280;63741;42.624;26.276;2022-10-31T07:32:42;100157.03;;;18.81;45.73
74958;BME280;63741;42.624;26.276;2022-10-31T07:35:16;100162.50;;;19.06;44.91
74958;BME280;63741;42.624;26.276;2022-10-31T07:37:52;100167.84;;;19.06;45.17
74958;BME280;63741;42.624;26.276;2022-10-31T07:40:19;100158.25;;;19.88;43.51
74958;BME280;63741;42.624;26.276;2022-10-31T07:42:49;100152.25;;;20.99;40.57
74958;BME280;63741;42.624;26.276;2022-10-31T07:45:55;100149.56;;;21.92;39.74
74958;BME280;63741;42.624;26.276;2022-10-31T07:48:40;100141.31;;;22.54;38.00
74958;BME280;63741;42.624;26.276;2022-10-31T07:51:26;100158.72;;;22.81;37.20
74958;BME280;63741;42.624;26.276;2022-10-31T07:54:22;100156.22;;;23.24;37.97
74958;BME280;63741;42.624;26.276;2022-10-31T07:56:49;100156.34;;;23.52;36.66
74958;BME280;63741;42.624;26.276;2022-10-31T07:59:16;100158.31;;;23.43;36.64
74958;BME280;63741;42.624;26.276;2022-10-31T08:01:43;100155.03;;;23.63;35.80
74958;BME280;63741;42.624;26.276;2022-10-31T08:04:36;100160.13;;;23.36;35.10
74958;BME280;63741;42.624;26.276;2022-10-31T08:07:21;100154.31;;;23.39;36.39
74958;BME280;63741;42.624;26.276;2022-10-31T08:09:55;100162.56;;;23.53;35.97
74958;BME280;63741;42.624;26.276;2022-10-31T08:12:27;100165.47;;;23.87;36.35
74958;BME280;63741;42.624;26.276;2022-10-31T08:14:54;100164.66;;;23.87;36.66
74958;BME280;63741;42.624;26.276;2022-10-31T08:17:20;100169.47;;;23.91;35.92
74958;BME280;63741;42.624;26.276;2022-10-31T08:19:55;100178.53;;;24.05;35.42
74958;BME280;63741;42.624;26.276;2022-10-31T08:22:30;100174.78;;;24.42;35.57
74958;BME280;63741;42.624;26.276;2022-10-31T08:24:58;100160.91;;;24.52;34.96
74958;BME280;63741;42.624;26.276;2022-10-31T08:27:27;100164.03;;;24.84;34.73
74958;BME280;63741;42.624;26.276;2022-10-31T08:29:56;100160.06;;;24.86;33.02
74958;BME280;63741;42.624;26.276;2022-10-31T08:32:25;100157.28;;;24.73;33.71
74958;BME280;63741;42.624;26.276;2022-10-31T08:35:10;100164.69;;;24.92;32.66
74958;BME280;63741;42.624;26.276;2022-10-31T08:37:57;100165.91;;;24.83;32.92
74958;BME280;63741;42.624;26.276;2022-10-31T08:40:27;100163.28;;;25.03;32.80
74958;BME280;63741;42.624;26.276;2022-10-31T08:43:14;100159.09;;;25.35;32.52
74958;BME280;63741;42.624;26.276;2022-10-31T08:45:42;100158.31;;;25.41;31.58
74958;BME280;63741;42.624;26.276;2022-10-31T08:48:17;100161.78;;;25.29;32.71
74958;BME280;63741;42.624;26.276;2022-10-31T08:50:45;100164.00;;;25.60;33.18
74958;BME280;63741;42.624;26.276;2022-10-31T08:53:16;100160.06;;;25.69;33.19
74958;BME280;63741;42.624;26.276;2022-10-31T08:55:47;100171.78;;;25.83;33.19
74958;BME280;63741;42.624;26.276;2022-10-31T08:58:23;100164.50;;;25.90;32.91
74958;BME280;63741;42.624;26.276;2022-10-31T09:00:55;100169.72;;;25.91;32.35
74958;BME280;63741;42.624;26.276;2022-10-31T09:03:26;100178.31;;;26.08;32.57
74958;BME280;63741;42.624;26.276;2022-10-31T09:05:56;100171.84;;;26.36;32.05
74958;BME280;63741;42.624;26.276;2022-10-31T09:08:23;100176.88;;;26.59;31.85
74958;BME280;63741;42.624;26.276;2022-10-31T09:10:51;100175.59;;;26.41;32.23
74958;BME280;63741;42.624;26.276;2022-10-31T09:13:36;100172.47;;;26.71;31.08
74958;BME280;63741;42.624;26.276;2022-10-31T09:16:41;100172.63;;;27.03;31.52
74958;BME280;63741;42.624;26.276;2022-10-31T09:19:15;100174.38;;;26.57;30.80
74958;BME280;63741;42.624;26.276;2022-10-31T09:21:45;100171.03;;;26.55;31.20
74958;BME280;63741;42.624;26.276;2022-10-31T09:24:12;100176.44;;;26.68;31.37
74958;BME280;63741;42.624;26.276;2022-10-31T09:26:41;100164.97;;;26.46;29.84
74958;BME280;63741;42.624;26.276;2022-10-31T09:29:17;100166.84;;;26.66;30.02
74958;BME280;63741;42.624;26.276;2022-10-31T09:31:49;100165.41;;;26.70;29.89
74958;BME280;63741;42.624;26.276;2022-10-31T09:34:27;100155.13;;;26.79;30.09
74958;BME280;63741;42.624;26.276;2022-10-31T09:37:04;100155.25;;;27.17;30.95
74958;BME280;63741;42.624;26.276;2022-10-31T09:39:33;100163.31;;;27.37;30.16
74958;BME280;63741;42.624;26.276;2022-10-31T09:45:20;100158.84;;;27.11;30.13
74958;BME280;63741;42.624;26.276;2022-10-31T09:48:20;100165.31;;;27.61;29.80
74958;BME280;63741;42.624;26.276;2022-10-31T09:51:39;100156.34;;;26.96;29.47
74958;BME280;63741;42.624;26.276;2022-10-31T09:54:22;100159.72;;;26.78;29.45
74958;BME280;63741;42.624;26.276;2022-10-31T09:56:52;100155.97;;;26.79;29.52
74958;BME280;63741;42.624;26.276;2022-10-31T09:59:46;100153.91;;;26.28;29.90
74958;BME280;63741;42.624;26.276;2022-10-31T10:05:06;100151.81;;;26.70;29.81
74958;BME280;63741;42.624;26.276;2022-10-31T10:11:05;100146.53;;;27.53;29.40
74958;BME280;63741;42.624;26.276;2022-10-31T10:14:18;100144.69;;;26.89;29.26
74958;BME280;63741;42.624;26.276;2022-10-31T10:30:21;100127.31;;;27.48;28.81
74958;BME280;63741;42.624;26.276;2022-10-31T10:32:56;100133.16;;;27.52;29.11
74958;BME280;63741;42.624;26.276;2022-10-31T10:35:43;100127.69;;;27.20;29.31
74958;BME280;63741;42.624;26.276;2022-10-31T10:38:34;100136.84;;;27.19;30.07
74958;BME280;63741;42.624;26.276;2022-10-31T10:41:12;100134.25;;;26.79;30.61
74958;BME280;63741;42.624;26.276;2022-10-31T10:43:41;100120.75;;;26.00;30.14
74958;BME280;63741;42.624;26.276;2022-10-31T10:49:05;100125.16;;;25.39;31.63
74958;BME280;63741;42.624;26.276;2022-10-31T10:51:38;100124.25;;;26.33;29.86
74958;BME280;63741;42.624;26.276;2022-10-31T10:57:37;100121.34;;;26.02;30.22
74958;BME280;63741;42.624;26.276;2022-10-31T11:02:59;100116.34;;;26.25;29.49
74958;BME280;63741;42.624;26.276;2022-10-31T11:05:51;100108.16;;;26.78;29.41
74958;BME280;63741;42.624;26.276;2022-10-31T11:08:33;100111.41;;;27.13;28.83
74958;BME280;63741;42.624;26.276;2022-10-31T11:11:05;100112.41;;;27.19;29.10
74958;BME280;63741;42.624;26.276;2022-10-31T11:13:36;100114.53;;;27.04;29.63
74958;BME280;63741;42.624;26.276;2022-10-31T11:16:07;100110.88;;;27.36;29.72
74958;BME280;63741;42.624;26.276;2022-10-31T11:18:38;100107.81;;;27.58;29.01
74958;BME280;63741;42.624;26.276;2022-10-31T11:21:21;100109.63;;;27.70;28.28
74958;BME280;63741;42.624;26.276;2022-10-31T11:23:50;100106.34;;;27.93;27.63
74958;BME280;63741;42.624;26.276;2022-10-31T11:26:28;100108.41;;;27.98;27.24
74958;BME280;63741;42.624;26.276;2022-10-31T11:28:59;100103.31;;;28.08;27.84
74958;BME280;63741;42.624;26.276;2022-10-31T11:31:26;100091.34;;;28.34;26.05
74958;BME280;63741;42.624;26.276;2022-10-31T11:36:30;100092.31;;;28.46;26.01
74958;BME280;63741;42.624;26.276;2022-10-31T11:38:59;100084.50;;;28.32;27.37
74958;BME280;63741;42.624;26.276;2022-10-31T11:41:32;100094.38;;;28.01;26.72
74958;BME280;63741;42.624;26.276;2022-10-31T11:44:03;100086.00;;;27.78;27.02
74958;BME280;63741;42.624;26.276;2022-10-31T11:46:38;100096.31;;;27.94;26.98
74958;BME280;63741;42.624;26.276;2022-10-31T11:49:15;100079.69;;;28.09;27.94
74958;BME280;63741;42.624;26.276;2022-10-31T11:51:49;100087.72;;;28.22;27.46
74958;BME280;63741;42.624;26.276;2022-10-31T11:54:28;100077.75;;;28.59;26.82
74958;BME280;63741;42.624;26.276;2022-10-31T11:56:55;100078.03;;;28.69;26.49
74958;BME280;63741;42.624;26.276;2022-10-31T11:59:31;100075.31;;;28.51;27.59
74958;BME280;63741;42.624;26.276;2022-10-31T12:02:00;100082.56;;;27.89;27.85
74958;BME280;63741;42.624;26.276;2022-10-31T12:04:34;100086.09;;;27.89;27.14
74958;BME280;63741;42.624;26.276;2022-10-31T12:07:04;100073.47;;;28.02;27.25
74958;BME280;63741;42.624;26.276;2022-10-31T12:09:36;100079.22;;;28.12;26.35
74958;BME280;63741;42.624;26.276;2022-10-31T12:15:04;100075.59;;;28.43;27.98
74958;BME280;63741;42.624;26.276;2022-10-31T12:20:22;100074.13;;;28.22;26.07
74958;BME280;63741;42.624;26.276;2022-10-31T12:23:12;100077.56;;;28.36;26.90
74958;BME280;63741;42.624;26.276;2022-10-31T12:28:56;100075.59;;;28.43;25.97
74958;BME280;63741;42.624;26.276;2022-10-31T12:40:01;100070.09;;;28.25;26.56
74958;BME280;63741;42.624;26.276;2022-10-31T12:42:22;100073.50;;;28.45;26.80
74958;BME280;63741;42.624;26.276;2022-10-31T12:45:13;100070.41;;;28.78;25.38
74958;BME280;63741;42.624;26.276;2022-10-31T12:48:04;100066.72;;;28.54;26.28
74958;BME280;63741;42.624;26.276;2022-10-31T12:50:41;100076.53;;;28.55;25.96
74958;BME280;63741;42.624;26.276;2022-10-31T12:53:50;100076.66;;;28.42;27.65
74958;BME280;63741;42.624;26.276;2022-10-31T12:59:31;100088.41;;;27.86;27.43
74958;BME280;63741;42.624;26.276;2022-10-31T13:04:57;100082.88;;;27.74;27.91
74958;BME280;63741;42.624;26.276;2022-10-31T13:07:31;100077.00;;;27.39;28.36
74958;BME280;63741;42.624;26.276;2022-10-31T13:10:10;100082.59;;;27.06;28.38
74958;BME280;63741;42.624;26.276;2022-10-31T13:12:42;100085.66;;;26.51;29.33
74958;BME280;63741;42.624;26.276;2022-10-31T13:15:45;100077.53;;;26.25;30.12
74958;BME280;63741;42.624;26.276;2022-10-31T13:18:24;100078.59;;;25.97;30.22
74958;BME280;63741;42.624;26.276;2022-10-31T13:20:55;100085.00;;;25.50;31.04
74958;BME280;63741;42.624;26.276;2022-10-31T13:26:28;100080.66;;;25.68;30.71
74958;BME280;63741;42.624;26.276;2022-10-31T13:29:09;100084.09;;;25.36;31.10
74958;BME280;63741;42.624;26.276;2022-10-31T13:31:40;100078.47;;;25.24;31.70
74958;BME280;63741;42.624;26.276;2022-10-31T13:45:14;100086.94;;;25.08;31.89
74958;BME280;63741;42.624;26.276;2022-10-31T13:47:42;100093.06;;;24.88;32.62
74958;BME280;63741;42.624;26.276;2022-10-31T13:50:26;100093.22;;;24.80;32.74
74958;BME280;63741;42.624;26.276;2022-10-31T13:55:48;100096.69;;;24.67;32.95
74958;BME280;63741;42.624;26.276;2022-10-31T13:58:29;100097.66;;;24.53;32.85
74958;BME280;63741;42.624;26.276;2022-10-31T14:01:12;100099.66;;;24.38;33.11
74958;BME280;63741;42.624;26.276;2022-10-31T14:03:43;100104.72;;;24.26;33.36
74958;BME280;63741;42.624;26.276;2022-10-31T14:06:43;100102.97;;;24.18;33.97
74958;BME280;63741;42.624;26.276;2022-10-31T14:09:25;100110.41;;;24.10;33.58
74958;BME280;63741;42.624;26.276;2022-10-31T14:11:53;100119.28;;;24.04;34.05
74958;BME280;63741;42.624;26.276;2022-10-31T14:14:23;100122.78;;;23.98;34.21
74958;BME280;63741;42.624;26.276;2022-10-31T14:16:55;100127.06;;;23.92;34.28
74958;BME280;63741;42.624;26.276;2022-10-31T14:19:23;100116.81;;;24.02;34.13
74958;BME280;63741;42.624;26.276;2022-10-31T14:21:51;100117.34;;;24.19;34.08
74958;BME280;63741;42.624;26.276;2022-10-31T14:26:57;100123.19;;;24.44;33.59
74958;BME280;63741;42.624;26.276;2022-10-31T14:29:27;100120.47;;;24.44;33.17
74958;BME280;63741;42.624;26.276;2022-10-31T14:34:42;100126.19;;;23.85;34.29
74958;BME280;63741;42.624;26.276;2022-10-31T14:51:14;100122.28;;;23.15;35.53
74958;BME280;63741;42.624;26.276;2022-10-31T14:53:47;100131.59;;;22.98;35.76
74958;BME280;63741;42.624;26.276;2022-10-31T14:56:29;100129.16;;;22.88;35.76
74958;BME280;63741;42.624;26.276;2022-10-31T14:59:01;100132.78;;;22.80;36.41
74958;BME280;63741;42.624;26.276;2022-10-31T15:01:33;100137.53;;;22.78;36.62
74958;BME280;63741;42.624;26.276;2022-10-31T15:04:27;100138.38;;;22.64;37.02
74958;BME280;63741;42.624;26.276;2022-10-31T15:09:31;100139.63;;;22.53;37.26
74958;BME280;63741;42.624;26.276;2022-10-31T15:12:00;100137.41;;;22.57;36.50
74958;BME280;63741;42.624;26.276;2022-10-31T15:14:31;100138.03;;;22.44;36.82
74958;BME280;63741;42.624;26.276;2022-10-31T15:16:59;100139.97;;;22.35;36.41
74958;BME280;63741;42.624;26.276;2022-10-31T15:19:30;100139.00;;;22.13;36.69
74958;BME280;63741;42.624;26.276;2022-10-31T15:22:00;100136.97;;;22.15;36.83
74958;BME280;63741;42.624;26.276;2022-10-31T15:24:34;100149.16;;;22.03;37.51